sensor_id;sensor_type;location;lat;lon;timestamp;noise_LAeq;noise_LA_min;noise_LA_max;noise_LA01;noise_LA95
47109;Laerm;32856;51.422;6.794;2023-04-24T00:01:56;48.79;43.54;63.24;;
47109;Laerm;32856;51.422;6.794;2023-04-24T00:04:24;54.58;44.51;72.62;;
47109;Laerm;32856;51.422;6.794;2023-04-24T00:06:52;48.45;43.24;61.70;;
47109;Laerm;32856;51.422;6.794;2023-04-24T00:09:23;50.14;43.68;67.82;;
47109;Laerm;32856;51.422;6.794;2023-04-24T00:11:52;50.82;43.90;67.39;;
47109;Laerm;32856;51.422;6.794;2023-04-24T00:14:20;54.32;47.50;72.23;;
47109;Laerm;32856;51.422;6.794;2023-04-24T00:16:47;54.05;44.79;77.35;;
47109;Laerm;32856;51.422;6.794;2023-04-24T00:19:14;51.78;45.99;66.89;;
47109;Laerm;32856;51.422;6.794;2023-04-24T00:21:42;57.31;43.29;73.79;;
47109;Laerm;32856;51.422;6.794;2023-04-24T00:24:09;48.63;43.72;56.97;;
47109;Laerm;32856;51.422;6.794;2023-04-24T00:26:37;54.97;43.09;68.71;;
47109;Laerm;32856;51.422;6.794;2023-04-24T00:29:05;49.89;43.90;68.95;;
47109;Laerm;32856;51.422;6.794;2023-04-24T00:31:33;49.69;44.76;56.70;;
47109;Laerm;32856;51.422;6.794;2023-04-24T00:34:00;49.58;44.23;60.85;;
47109;Laerm;32856;51.422;6.794;2023-04-24T00:36:28;52.94;43.94;71.53;;
47109;Laerm;32856;51.422;6.794;2023-04-24T00:38:56;49.77;44.58;66.90;;
47109;Laerm;32856;51.422;6.794;2023-04-24T00:41:24;53.01;45.77;74.06;;
47109;Laerm;32856;51.422;6.794;2023-04-24T00:43:51;47.57;43.63;58.76;;
47109;Laerm;32856;51.422;6.794;2023-04-24T00:46:20;49.64;44.94;61.18;;
47109;Laerm;32856;51.422;6.794;2023-04-24T00:48:47;50.43;44.90;72.11;;
47109;Laerm;32856;51.422;6.794;2023-04-24T00:51:15;54.95;43.90;72.35;;
47109;Laerm;32856;51.422;6.794;2023-04-24T00:53:42;53.19;44.83;73.03;;
47109;Laerm;32856;51.422;6.794;2023-04-24T00:56:10;54.08;43.81;71.57;;
47109;Laerm;32856;51.422;6.794;2023-04-24T00:58:37;52.57;44.58;71.09;;
47109;Laerm;32856;51.422;6.794;2023-04-24T01:01:05;54.50;46.13;68.06;;
47109;Laerm;32856;51.422;6.794;2023-04-24T01:03:35;53.37;45.69;67.20;;
47109;Laerm;32856;51.422;6.794;2023-04-24T01:06:03;48.61;43.34;58.20;;
47109;Laerm;32856;51.422;6.794;2023-04-24T01:08:31;49.15;43.58;61.52;;
47109;Laerm;32856;51.422;6.794;2023-04-24T01:10:59;51.35;44.69;56.73;;
47109;Laerm;32856;51.422;6.794;2023-04-24T01:13:27;55.39;43.39;72.30;;
47109;Laerm;32856;51.422;6.794;2023-04-24T01:15:54;49.39;45.36;57.34;;
47109;Laerm;32856;51.422;6.794;2023-04-24T01:18:22;52.64;46.20;73.74;;
47109;Laerm;32856;51.422;6.794;2023-04-24T01:20:51;53.99;46.13;68.30;;
47109;Laerm;32856;51.422;6.794;2023-04-24T01:23:21;49.80;44.20;62.33;;
47109;Laerm;32856;51.422;6.794;2023-04-24T01:25:49;49.71;45.77;58.95;;
47109;Laerm;32856;51.422;6.794;2023-04-24T01:28:17;54.49;44.38;61.84;;
47109;Laerm;32856;51.422;6.794;2023-04-24T01:30:44;49.45;44.15;60.31;;
47109;Laerm;32856;51.422;6.794;2023-04-24T01:33:12;50.66;44.35;62.18;;
47109;Laerm;32856;51.422;6.794;2023-04-24T01:35:39;47.90;44.39;55.31;;
47109;Laerm;32856;51.422;6.794;2023-04-24T01:38:07;52.13;46.66;58.52;;
47109;Laerm;32856;51.422;6.794;2023-04-24T01:40:35;55.71;47.38;66.01;;
47109;Laerm;32856;51.422;6.794;2023-04-24T01:43:03;51.31;47.14;55.61;;
47109;Laerm;32856;51.422;6.794;2023-04-24T01:45:31;51.46;46.35;63.57;;
47109;Laerm;32856;51.422;6.794;2023-04-24T01:47:58;56.25;46.93;72.85;;
47109;Laerm;32856;51.422;6.794;2023-04-24T01:50:27;50.54;44.03;55.87;;
47109;Laerm;32856;51.422;6.794;2023-04-24T01:52:54;56.42;46.07;72.55;;
47109;Laerm;32856;51.422;6.794;2023-04-24T01:55:21;52.08;45.69;68.58;;
47109;Laerm;32856;51.422;6.794;2023-04-24T01:57:50;60.83;48.05;79.43;;
47109;Laerm;32856;51.422;6.794;2023-04-24T02:00:19;56.08;47.04;71.05;;
47109;Laerm;32856;51.422;6.794;2023-04-24T02:02:46;52.31;47.55;60.96;;
47109;Laerm;32856;51.422;6.794;2023-04-24T02:05:14;53.72;46.45;67.21;;
47109;Laerm;32856;51.422;6.794;2023-04-24T02:07:41;51.53;45.57;56.83;;
47109;Laerm;32856;51.422;6.794;2023-04-24T02:10:09;54.07;48.70;67.81;;
47109;Laerm;32856;51.422;6.794;2023-04-24T02:12:37;56.41;47.88;71.92;;
47109;Laerm;32856;51.422;6.794;2023-04-24T02:15:06;59.54;47.16;74.56;;
47109;Laerm;32856;51.422;6.794;2023-04-24T02:17:33;52.58;46.55;66.63;;
47109;Laerm;32856;51.422;6.794;2023-04-24T02:20:01;56.68;48.07;72.19;;
47109;Laerm;32856;51.422;6.794;2023-04-24T02:22:28;57.93;47.18;74.57;;
47109;Laerm;32856;51.422;6.794;2023-04-24T02:24:55;56.85;47.70;70.27;;
47109;Laerm;32856;51.422;6.794;2023-04-24T02:27:22;55.15;47.16;70.59;;
47109;Laerm;32856;51.422;6.794;2023-04-24T02:29:50;54.32;49.23;65.76;;
47109;Laerm;32856;51.422;6.794;2023-04-24T02:32:19;56.15;48.66;73.93;;
47109;Laerm;32856;51.422;6.794;2023-04-24T02:34:46;53.55;47.98;59.95;;
47109;Laerm;32856;51.422;6.794;2023-04-24T02:37:13;58.82;48.99;75.95;;
47109;Laerm;32856;51.422;6.794;2023-04-24T02:39:41;53.23;49.59;62.63;;
47109;Laerm;32856;51.422;6.794;2023-04-24T02:42:08;59.86;48.52;78.08;;
47109;Laerm;32856;51.422;6.794;2023-04-24T02:44:36;53.65;50.16;58.60;;
47109;Laerm;32856;51.422;6.794;2023-04-24T02:47:03;59.35;50.83;74.62;;
47109;Laerm;32856;51.422;6.794;2023-04-24T02:49:32;57.00;49.67;69.91;;
47109;Laerm;32856;51.422;6.794;2023-04-24T02:51:59;56.87;48.20;73.25;;
47109;Laerm;32856;51.422;6.794;2023-04-24T02:54:27;57.65;51.47;70.24;;
47109;Laerm;32856;51.422;6.794;2023-04-24T02:56:54;58.03;49.87;71.14;;
47109;Laerm;32856;51.422;6.794;2023-04-24T02:59:22;61.24;49.46;76.01;;
47109;Laerm;32856;51.422;6.794;2023-04-24T03:01:50;62.05;52.04;75.03;;
47109;Laerm;32856;51.422;6.794;2023-04-24T03:04:17;65.18;52.27;80.77;;
47109;Laerm;32856;51.422;6.794;2023-04-24T03:06:47;59.12;52.00;71.28;;
47109;Laerm;32856;51.422;6.794;2023-04-24T03:09:15;57.69;51.66;72.13;;
47109;Laerm;32856;51.422;6.794;2023-04-24T03:11:42;58.30;51.89;73.26;;
47109;Laerm;32856;51.422;6.794;2023-04-24T03:14:09;59.15;52.91;74.27;;
47109;Laerm;32856;51.422;6.794;2023-04-24T03:16:37;59.95;52.17;73.24;;
47109;Laerm;32856;51.422;6.794;2023-04-24T03:19:04;58.26;51.69;73.49;;
47109;Laerm;32856;51.422;6.794;2023-04-24T03:21:31;61.10;52.82;77.02;;
47109;Laerm;32856;51.422;6.794;2023-04-24T03:24:00;60.85;53.58;76.84;;
47109;Laerm;32856;51.422;6.794;2023-04-24T03:26:28;61.65;53.29;73.22;;
47109;Laerm;32856;51.422;6.794;2023-04-24T03:28:55;62.63;52.90;74.31;;
47109;Laerm;32856;51.422;6.794;2023-04-24T03:31:22;58.89;52.22;72.74;;
47109;Laerm;32856;51.422;6.794;2023-04-24T03:33:50;59.83;53.69;74.74;;
47109;Laerm;32856;51.422;6.794;2023-04-24T03:36:18;56.27;51.80;71.84;;
47109;Laerm;32856;51.422;6.794;2023-04-24T03:38:46;59.30;52.21;73.92;;
47109;Laerm;32856;51.422;6.794;2023-04-24T03:41:14;56.72;52.59;65.66;;
47109;Laerm;32856;51.422;6.794;2023-04-24T03:43:42;63.30;52.57;76.00;;
47109;Laerm;32856;51.422;6.794;2023-04-24T03:46:09;63.97;53.14;78.69;;
47109;Laerm;32856;51.422;6.794;2023-04-24T03:48:37;62.38;53.76;72.87;;
47109;Laerm;32856;51.422;6.794;2023-04-24T03:51:04;60.03;53.81;72.47;;
47109;Laerm;32856;51.422;6.794;2023-04-24T03:53:31;61.52;52.92;71.87;;
47109;Laerm;32856;51.422;6.794;2023-04-24T03:55:59;62.52;53.20;73.94;;
47109;Laerm;32856;51.422;6.794;2023-04-24T03:58:27;63.35;53.11;77.18;;
47109;Laerm;32856;51.422;6.794;2023-04-24T04:00:54;62.20;52.88;75.10;;
47109;Laerm;32856;51.422;6.794;2023-04-24T04:03:24;61.17;53.15;74.81;;
47109;Laerm;32856;51.422;6.794;2023-04-24T04:05:51;59.27;53.16;72.88;;
47109;Laerm;32856;51.422;6.794;2023-04-24T04:08:19;61.50;53.18;75.17;;
47109;Laerm;32856;51.422;6.794;2023-04-24T04:10:46;62.44;53.34;74.07;;
47109;Laerm;32856;51.422;6.794;2023-04-24T04:13:13;62.41;54.39;78.39;;
47109;Laerm;32856;51.422;6.794;2023-04-24T04:15:42;62.15;53.12;77.61;;
47109;Laerm;32856;51.422;6.794;2023-04-24T04:18:09;64.03;53.62;80.02;;
47109;Laerm;32856;51.422;6.794;2023-04-24T04:20:37;63.43;53.43;76.98;;
47109;Laerm;32856;51.422;6.794;2023-04-24T04:23:04;64.19;53.31;77.41;;
47109;Laerm;32856;51.422;6.794;2023-04-24T04:25:31;62.21;53.44;74.36;;
47109;Laerm;32856;51.422;6.794;2023-04-24T04:27:59;65.39;54.69;84.74;;
47109;Laerm;32856;51.422;6.794;2023-04-24T04:30:29;63.35;54.10;73.86;;
47109;Laerm;32856;51.422;6.794;2023-04-24T04:32:59;63.30;54.29;76.11;;
47109;Laerm;32856;51.422;6.794;2023-04-24T04:35:27;62.16;53.37;75.26;;
47109;Laerm;32856;51.422;6.794;2023-04-24T04:37:54;63.73;55.17;77.11;;
47109;Laerm;32856;51.422;6.794;2023-04-24T04:40:22;63.92;54.95;73.85;;
47109;Laerm;32856;51.422;6.794;2023-04-24T04:42:49;65.67;55.03;76.79;;
47109;Laerm;32856;51.422;6.794;2023-04-24T04:45:19;62.02;53.74;76.31;;
47109;Laerm;32856;51.422;6.794;2023-04-24T04:47:46;60.17;53.22;73.27;;
47109;Laerm;32856;51.422;6.794;2023-04-24T04:50:16;63.88;53.34;76.06;;
47109;Laerm;32856;51.422;6.794;2023-04-24T04:52:45;63.92;54.60;78.20;;
47109;Laerm;32856;51.422;6.794;2023-04-24T04:55:13;68.08;54.60;86.39;;
47109;Laerm;32856;51.422;6.794;2023-04-24T04:57:40;63.90;54.07;81.91;;
47109;Laerm;32856;51.422;6.794;2023-04-24T05:00:08;63.65;55.15;75.07;;
47109;Laerm;32856;51.422;6.794;2023-04-24T05:02:37;63.27;54.79;74.31;;
47109;Laerm;32856;51.422;6.794;2023-04-24T05:05:05;64.60;54.46;79.37;;
47109;Laerm;32856;51.422;6.794;2023-04-24T05:07:34;62.49;54.14;72.65;;
47109;Laerm;32856;51.422;6.794;2023-04-24T05:10:01;67.56;55.16;82.06;;
47109;Laerm;32856;51.422;6.794;2023-04-24T05:12:29;64.15;54.56;76.70;;
47109;Laerm;32856;51.422;6.794;2023-04-24T05:14:56;66.23;54.76;78.98;;
47109;Laerm;32856;51.422;6.794;2023-04-24T05:17:23;64.41;56.32;72.38;;
47109;Laerm;32856;51.422;6.794;2023-04-24T05:19:52;66.40;55.12;77.59;;
47109;Laerm;32856;51.422;6.794;2023-04-24T05:22:19;65.59;55.36;74.38;;
47109;Laerm;32856;51.422;6.794;2023-04-24T05:24:48;65.07;54.50;77.63;;
47109;Laerm;32856;51.422;6.794;2023-04-24T05:27:15;65.43;54.31;75.67;;
47109;Laerm;32856;51.422;6.794;2023-04-24T05:29:43;65.94;55.08;74.61;;
47109;Laerm;32856;51.422;6.794;2023-04-24T05:32:11;64.39;54.94;73.94;;
47109;Laerm;32856;51.422;6.794;2023-04-24T05:34:38;68.18;55.24;82.90;;
47109;Laerm;32856;51.422;6.794;2023-04-24T05:37:05;65.90;55.23;77.09;;
47109;Laerm;32856;51.422;6.794;2023-04-24T05:39:36;65.03;53.71;80.94;;
47109;Laerm;32856;51.422;6.794;2023-04-24T05:42:05;68.10;55.55;82.13;;
47109;Laerm;32856;51.422;6.794;2023-04-24T05:44:32;66.37;53.74;76.32;;
47109;Laerm;32856;51.422;6.794;2023-04-24T05:47:00;66.10;55.18;74.05;;
47109;Laerm;32856;51.422;6.794;2023-04-24T05:49:27;67.59;55.30;80.20;;
47109;Laerm;32856;51.422;6.794;2023-04-24T05:51:55;64.35;55.00;75.56;;
47109;Laerm;32856;51.422;6.794;2023-04-24T05:54:22;66.43;55.09;81.38;;
47109;Laerm;32856;51.422;6.794;2023-04-24T05:56:49;66.22;54.48;77.67;;
47109;Laerm;32856;51.422;6.794;2023-04-24T05:59:18;66.13;54.29;75.66;;
47109;Laerm;32856;51.422;6.794;2023-04-24T06:01:46;66.65;54.89;80.21;;
47109;Laerm;32856;51.422;6.794;2023-04-24T06:04:13;63.40;53.77;72.75;;
47109;Laerm;32856;51.422;6.794;2023-04-24T06:06:41;65.57;54.66;78.47;;
47109;Laerm;32856;51.422;6.794;2023-04-24T06:09:08;64.98;55.63;74.58;;
47109;Laerm;32856;51.422;6.794;2023-04-24T06:11:35;68.07;54.79;82.98;;
47109;Laerm;32856;51.422;6.794;2023-04-24T06:14:04;66.46;55.29;77.50;;
47109;Laerm;32856;51.422;6.794;2023-04-24T06:16:32;66.68;56.10;74.39;;
47109;Laerm;32856;51.422;6.794;2023-04-24T06:19:00;66.18;54.75;78.82;;
47109;Laerm;32856;51.422;6.794;2023-04-24T06:21:27;65.76;55.84;77.51;;
47109;Laerm;32856;51.422;6.794;2023-04-24T06:23:55;66.14;55.66;77.19;;
47109;Laerm;32856;51.422;6.794;2023-04-24T06:26:24;66.95;54.37;80.16;;
47109;Laerm;32856;51.422;6.794;2023-04-24T06:28:52;67.48;55.37;83.06;;
47109;Laerm;32856;51.422;6.794;2023-04-24T06:31:20;65.29;56.08;83.70;;
47109;Laerm;32856;51.422;6.794;2023-04-24T06:33:49;68.03;56.19;78.59;;
47109;Laerm;32856;51.422;6.794;2023-04-24T06:36:17;67.55;55.59;77.10;;
47109;Laerm;32856;51.422;6.794;2023-04-24T06:38:44;67.19;56.13;77.89;;
47109;Laerm;32856;51.422;6.794;2023-04-24T06:41:12;66.23;54.81;75.94;;
47109;Laerm;32856;51.422;6.794;2023-04-24T06:43:39;66.51;55.18;79.38;;
47109;Laerm;32856;51.422;6.794;2023-04-24T06:46:07;68.52;57.04;79.17;;
47109;Laerm;32856;51.422;6.794;2023-04-24T06:48:34;68.56;55.75;78.02;;
47109;Laerm;32856;51.422;6.794;2023-04-24T06:51:03;67.76;56.21;77.33;;
47109;Laerm;32856;51.422;6.794;2023-04-24T06:53:31;66.97;54.80;78.11;;
47109;Laerm;32856;51.422;6.794;2023-04-24T06:55:58;66.59;55.03;75.26;;
47109;Laerm;32856;51.422;6.794;2023-04-24T06:58:25;68.82;54.83;83.14;;
47109;Laerm;32856;51.422;6.794;2023-04-24T07:00:52;68.81;54.84;78.58;;
47109;Laerm;32856;51.422;6.794;2023-04-24T07:03:20;66.35;54.44;78.20;;
47109;Laerm;32856;51.422;6.794;2023-04-24T07:05:47;70.44;54.63;83.92;;
47109;Laerm;32856;51.422;6.794;2023-04-24T07:08:16;69.80;54.04;84.56;;
47109;Laerm;32856;51.422;6.794;2023-04-24T07:10:44;68.73;55.91;77.31;;
47109;Laerm;32856;51.422;6.794;2023-04-24T07:13:12;67.20;54.26;81.98;;
47109;Laerm;32856;51.422;6.794;2023-04-24T07:15:39;71.17;54.18;83.63;;
47109;Laerm;32856;51.422;6.794;2023-04-24T07:18:07;66.12;53.30;78.71;;
47109;Laerm;32856;51.422;6.794;2023-04-24T07:20:34;70.77;53.99;82.21;;
47109;Laerm;32856;51.422;6.794;2023-04-24T07:23:02;69.69;54.94;86.14;;
47109;Laerm;32856;51.422;6.794;2023-04-24T07:25:30;68.69;55.80;81.00;;
47109;Laerm;32856;51.422;6.794;2023-04-24T07:27:58;70.05;54.41;81.07;;
47109;Laerm;32856;51.422;6.794;2023-04-24T07:30:26;71.99;55.93;81.15;;
47109;Laerm;32856;51.422;6.794;2023-04-24T07:32:54;69.19;53.93;81.75;;
47109;Laerm;32856;51.422;6.794;2023-04-24T07:35:22;69.93;55.00;81.45;;
47109;Laerm;32856;51.422;6.794;2023-04-24T07:37:51;69.92;54.10;79.99;;
47109;Laerm;32856;51.422;6.794;2023-04-24T07:40:18;68.81;56.08;79.97;;
47109;Laerm;32856;51.422;6.794;2023-04-24T07:42:47;70.78;55.58;82.29;;
47109;Laerm;32856;51.422;6.794;2023-04-24T07:45:15;69.94;54.25;80.94;;
47109;Laerm;32856;51.422;6.794;2023-04-24T07:47:42;68.66;55.13;80.33;;
47109;Laerm;32856;51.422;6.794;2023-04-24T07:50:11;65.90;54.20;76.49;;
47109;Laerm;32856;51.422;6.794;2023-04-24T07:52:39;68.30;54.39;78.08;;
47109;Laerm;32856;51.422;6.794;2023-04-24T07:55:07;69.93;53.76;82.94;;
47109;Laerm;32856;51.422;6.794;2023-04-24T07:57:34;69.04;55.04;80.20;;
47109;Laerm;32856;51.422;6.794;2023-04-24T08:00:04;70.12;55.82;84.03;;
47109;Laerm;32856;51.422;6.794;2023-04-24T08:02:31;66.28;54.45;80.14;;
47109;Laerm;32856;51.422;6.794;2023-04-24T08:04:59;66.92;53.28;82.30;;
47109;Laerm;32856;51.422;6.794;2023-04-24T08:07:26;69.87;54.23;85.81;;
47109;Laerm;32856;51.422;6.794;2023-04-24T08:09:53;70.37;54.43;81.32;;
47109;Laerm;32856;51.422;6.794;2023-04-24T08:12:21;68.44;55.58;80.88;;
47109;Laerm;32856;51.422;6.794;2023-04-24T08:14:48;68.07;53.11;82.88;;
47109;Laerm;32856;51.422;6.794;2023-04-24T08:17:17;69.40;54.49;80.75;;
47109;Laerm;32856;51.422;6.794;2023-04-24T08:19:44;65.81;53.50;78.97;;
47109;Laerm;32856;51.422;6.794;2023-04-24T08:22:14;67.11;52.57;78.60;;
47109;Laerm;32856;51.422;6.794;2023-04-24T08:24:41;68.47;54.25;82.80;;
47109;Laerm;32856;51.422;6.794;2023-04-24T08:27:09;66.38;53.21;79.17;;
47109;Laerm;32856;51.422;6.794;2023-04-24T08:29:37;67.87;53.67;77.92;;
47109;Laerm;32856;51.422;6.794;2023-04-24T08:32:04;69.95;52.05;82.81;;
47109;Laerm;32856;51.422;6.794;2023-04-24T08:34:34;73.45;53.25;89.30;;
47109;Laerm;32856;51.422;6.794;2023-04-24T08:37:01;68.28;52.24;80.53;;
47109;Laerm;32856;51.422;6.794;2023-04-24T08:39:29;67.76;52.63;84.21;;
47109;Laerm;32856;51.422;6.794;2023-04-24T08:41:56;68.85;51.25;82.65;;
47109;Laerm;32856;51.422;6.794;2023-04-24T08:44:31;69.02;52.15;81.16;;
47109;Laerm;32856;51.422;6.794;2023-04-24T08:46:59;66.44;52.08;81.18;;
47109;Laerm;32856;51.422;6.794;2023-04-24T08:49:28;66.32;52.43;78.33;;
47109;Laerm;32856;51.422;6.794;2023-04-24T08:51:57;69.03;53.77;80.22;;
47109;Laerm;32856;51.422;6.794;2023-04-24T08:54:25;68.24;52.16;78.59;;
47109;Laerm;32856;51.422;6.794;2023-04-24T08:56:53;71.40;54.58;83.47;;
47109;Laerm;32856;51.422;6.794;2023-04-24T08:59:21;66.89;53.07;78.74;;
47109;Laerm;32856;51.422;6.794;2023-04-24T09:01:49;68.16;51.27;79.38;;
47109;Laerm;32856;51.422;6.794;2023-04-24T09:04:18;70.99;53.28;87.32;;
47109;Laerm;32856;51.422;6.794;2023-04-24T09:06:48;70.37;54.86;83.88;;
47109;Laerm;32856;51.422;6.794;2023-04-24T09:09:17;68.71;54.62;79.73;;
47109;Laerm;32856;51.422;6.794;2023-04-24T09:11:44;66.55;56.27;78.65;;
47109;Laerm;32856;51.422;6.794;2023-04-24T09:14:14;68.13;51.81;80.83;;
47109;Laerm;32856;51.422;6.794;2023-04-24T09:16:41;68.62;52.17;81.80;;
47109;Laerm;32856;51.422;6.794;2023-04-24T09:19:08;66.75;52.14;80.73;;
47109;Laerm;32856;51.422;6.794;2023-04-24T09:21:36;65.56;51.52;78.77;;
47109;Laerm;32856;51.422;6.794;2023-04-24T09:24:05;72.97;53.33;87.70;;
47109;Laerm;32856;51.422;6.794;2023-04-24T09:26:35;71.40;54.52;87.04;;
47109;Laerm;32856;51.422;6.794;2023-04-24T09:29:03;67.02;52.39;81.26;;
47109;Laerm;32856;51.422;6.794;2023-04-24T09:31:31;66.43;53.11;76.78;;
47109;Laerm;32856;51.422;6.794;2023-04-24T09:33:59;69.47;53.21;81.72;;
47109;Laerm;32856;51.422;6.794;2023-04-24T09:36:28;68.96;52.30;79.32;;
47109;Laerm;32856;51.422;6.794;2023-04-24T09:38:57;70.71;54.34;79.69;;
47109;Laerm;32856;51.422;6.794;2023-04-24T09:41:24;66.42;52.31;78.18;;
47109;Laerm;32856;51.422;6.794;2023-04-24T09:43:54;71.50;55.53;84.04;;
47109;Laerm;32856;51.422;6.794;2023-04-24T09:46:28;70.59;52.36;82.43;;
47109;Laerm;32856;51.422;6.794;2023-04-24T09:48:56;71.71;54.36;82.14;;
47109;Laerm;32856;51.422;6.794;2023-04-24T09:51:33;69.55;53.69;80.44;;
47109;Laerm;32856;51.422;6.794;2023-04-24T09:54:00;69.58;52.19;80.79;;
47109;Laerm;32856;51.422;6.794;2023-04-24T09:56:28;69.21;53.63;81.79;;
47109;Laerm;32856;51.422;6.794;2023-04-24T09:58:56;70.05;54.02;84.47;;
47109;Laerm;32856;51.422;6.794;2023-04-24T10:01:30;72.26;56.41;85.17;;
47109;Laerm;32856;51.422;6.794;2023-04-24T10:03:58;68.49;54.49;79.79;;
47109;Laerm;32856;51.422;6.794;2023-04-24T10:06:29;67.99;53.21;79.20;;
47109;Laerm;32856;51.422;6.794;2023-04-24T10:08:57;69.98;54.82;82.60;;
47109;Laerm;32856;51.422;6.794;2023-04-24T10:11:25;67.82;52.62;79.65;;
47109;Laerm;32856;51.422;6.794;2023-04-24T10:13:53;69.80;52.51;79.71;;
47109;Laerm;32856;51.422;6.794;2023-04-24T10:16:23;72.37;52.86;88.45;;
47109;Laerm;32856;51.422;6.794;2023-04-24T10:18:50;70.82;50.77;83.32;;
47109;Laerm;32856;51.422;6.794;2023-04-24T10:21:18;66.92;50.44;78.65;;
47109;Laerm;32856;51.422;6.794;2023-04-24T10:23:45;68.88;51.16;79.24;;
47109;Laerm;32856;51.422;6.794;2023-04-24T10:26:12;66.01;52.21;78.69;;
47109;Laerm;32856;51.422;6.794;2023-04-24T10:28:43;70.65;53.02;81.37;;
47109;Laerm;32856;51.422;6.794;2023-04-24T10:31:11;68.02;51.53;79.61;;
47109;Laerm;32856;51.422;6.794;2023-04-24T10:33:41;70.41;52.41;82.97;;
47109;Laerm;32856;51.422;6.794;2023-04-24T10:36:09;68.23;51.44;78.54;;
47109;Laerm;32856;51.422;6.794;2023-04-24T10:38:38;68.60;50.59;80.43;;
47109;Laerm;32856;51.422;6.794;2023-04-24T10:41:07;67.77;52.32;81.10;;
47109;Laerm;32856;51.422;6.794;2023-04-24T10:43:36;65.81;53.51;78.31;;
47109;Laerm;32856;51.422;6.794;2023-04-24T10:46:04;67.78;52.20;80.62;;
47109;Laerm;32856;51.422;6.794;2023-04-24T10:48:32;67.88;50.39;80.26;;
47109;Laerm;32856;51.422;6.794;2023-04-24T10:51:01;68.25;50.54;81.54;;
47109;Laerm;32856;51.422;6.794;2023-04-24T10:53:29;70.12;49.90;85.06;;
47109;Laerm;32856;51.422;6.794;2023-04-24T10:55:57;66.79;51.64;77.17;;
47109;Laerm;32856;51.422;6.794;2023-04-24T10:58:26;66.02;50.98;78.82;;
47109;Laerm;32856;51.422;6.794;2023-04-24T11:01:02;70.78;51.87;85.61;;
47109;Laerm;32856;51.422;6.794;2023-04-24T11:03:30;68.65;52.80;78.97;;
47109;Laerm;32856;51.422;6.794;2023-04-24T11:05:59;66.89;50.67;79.21;;
47109;Laerm;32856;51.422;6.794;2023-04-24T11:08:29;62.97;50.62;76.03;;
47109;Laerm;32856;51.422;6.794;2023-04-24T11:10:58;70.14;51.89;82.86;;
47109;Laerm;32856;51.422;6.794;2023-04-24T11:13:26;66.83;52.02;79.89;;
47109;Laerm;32856;51.422;6.794;2023-04-24T11:16:13;66.61;50.46;77.77;;
47109;Laerm;32856;51.422;6.794;2023-04-24T11:18:41;68.42;52.24;81.05;;
47109;Laerm;32856;51.422;6.794;2023-04-24T11:21:11;66.58;50.98;79.11;;
47109;Laerm;32856;51.422;6.794;2023-04-24T11:23:40;68.01;52.67;79.81;;
47109;Laerm;32856;51.422;6.794;2023-04-24T11:26:11;68.35;53.25;81.86;;
47109;Laerm;32856;51.422;6.794;2023-04-24T11:28:43;66.12;53.11;77.12;;
47109;Laerm;32856;51.422;6.794;2023-04-24T11:33:57;68.32;51.17;83.28;;
47109;Laerm;32856;51.422;6.794;2023-04-24T11:36:32;66.15;52.08;77.67;;
47109;Laerm;32856;51.422;6.794;2023-04-24T11:39:01;68.67;52.64;80.94;;
47109;Laerm;32856;51.422;6.794;2023-04-24T11:41:28;64.65;52.95;74.78;;
47109;Laerm;32856;51.422;6.794;2023-04-24T11:43:56;68.74;53.19;86.32;;
47109;Laerm;32856;51.422;6.794;2023-04-24T11:46:26;67.37;51.38;79.41;;
47109;Laerm;32856;51.422;6.794;2023-04-24T11:48:54;67.02;50.84;82.54;;
47109;Laerm;32856;51.422;6.794;2023-04-24T11:51:22;61.89;48.83;72.99;;
47109;Laerm;32856;51.422;6.794;2023-04-24T11:53:49;69.07;50.35;83.65;;
47109;Laerm;32856;51.422;6.794;2023-04-24T11:56:24;66.56;50.68;77.38;;
47109;Laerm;32856;51.422;6.794;2023-04-24T11:58:52;69.65;51.47;81.47;;
47109;Laerm;32856;51.422;6.794;2023-04-24T12:01:19;65.03;49.95;77.12;;
47109;Laerm;32856;51.422;6.794;2023-04-24T12:03:48;65.33;50.13;74.92;;
47109;Laerm;32856;51.422;6.794;2023-04-24T12:06:17;65.99;52.56;83.86;;
47109;Laerm;32856;51.422;6.794;2023-04-24T12:08:45;64.81;50.84;76.48;;
47109;Laerm;32856;51.422;6.794;2023-04-24T12:11:14;68.40;51.17;78.66;;
47109;Laerm;32856;51.422;6.794;2023-04-24T12:13:43;68.04;52.03;84.35;;
47109;Laerm;32856;51.422;6.794;2023-04-24T12:16:11;64.93;51.96;77.81;;
47109;Laerm;32856;51.422;6.794;2023-04-24T12:18:42;63.66;50.88;75.18;;
47109;Laerm;32856;51.422;6.794;2023-04-24T12:21:16;67.17;50.85;80.78;;
47109;Laerm;32856;51.422;6.794;2023-04-24T12:23:46;66.61;55.00;78.16;;
47109;Laerm;32856;51.422;6.794;2023-04-24T12:26:17;66.07;50.68;76.36;;
47109;Laerm;32856;51.422;6.794;2023-04-24T12:28:48;66.94;52.27;85.01;;
47109;Laerm;32856;51.422;6.794;2023-04-24T12:31:16;66.02;53.37;75.69;;
47109;Laerm;32856;51.422;6.794;2023-04-24T12:33:43;65.59;51.66;74.62;;
47109;Laerm;32856;51.422;6.794;2023-04-24T12:36:11;66.86;51.17;76.64;;
47109;Laerm;32856;51.422;6.794;2023-04-24T12:38:41;65.34;52.53;73.64;;
47109;Laerm;32856;51.422;6.794;2023-04-24T12:41:13;66.95;52.13;78.55;;
47109;Laerm;32856;51.422;6.794;2023-04-24T12:43:51;65.74;52.41;75.21;;
47109;Laerm;32856;51.422;6.794;2023-04-24T12:46:19;66.04;50.16;79.39;;
47109;Laerm;32856;51.422;6.794;2023-04-24T12:48:48;67.37;51.37;76.81;;
47109;Laerm;32856;51.422;6.794;2023-04-24T12:51:15;64.12;49.74;75.50;;
47109;Laerm;32856;51.422;6.794;2023-04-24T12:53:43;66.37;53.02;76.86;;
47109;Laerm;32856;51.422;6.794;2023-04-24T12:56:11;66.95;50.18;81.47;;
47109;Laerm;32856;51.422;6.794;2023-04-24T12:58:38;65.36;52.43;77.41;;
47109;Laerm;32856;51.422;6.794;2023-04-24T13:01:07;68.48;55.99;76.59;;
47109;Laerm;32856;51.422;6.794;2023-04-24T13:03:35;67.43;50.63;82.98;;
47109;Laerm;32856;51.422;6.794;2023-04-24T13:06:03;64.74;50.78;79.07;;
47109;Laerm;32856;51.422;6.794;2023-04-24T13:08:31;67.20;51.71;79.19;;
47109;Laerm;32856;51.422;6.794;2023-04-24T13:10:58;67.59;52.46;86.46;;
47109;Laerm;32856;51.422;6.794;2023-04-24T13:13:26;67.27;50.46;84.06;;
47109;Laerm;32856;51.422;6.794;2023-04-24T13:15:54;66.80;51.38;78.28;;
47109;Laerm;32856;51.422;6.794;2023-04-24T13:18:23;68.79;51.19;82.11;;
47109;Laerm;32856;51.422;6.794;2023-04-24T13:20:50;66.44;51.01;74.49;;
47109;Laerm;32856;51.422;6.794;2023-04-24T13:23:18;66.79;53.32;77.66;;
47109;Laerm;32856;51.422;6.794;2023-04-24T13:25:46;65.94;51.30;76.48;;
47109;Laerm;32856;51.422;6.794;2023-04-24T13:28:14;65.55;51.15;75.14;;
47109;Laerm;32856;51.422;6.794;2023-04-24T13:30:42;64.52;49.34;77.26;;
47109;Laerm;32856;51.422;6.794;2023-04-24T13:33:09;66.43;50.68;79.65;;
47109;Laerm;32856;51.422;6.794;2023-04-24T13:35:38;69.97;57.87;83.89;;
47109;Laerm;32856;51.422;6.794;2023-04-24T13:38:06;66.08;50.98;77.47;;
47109;Laerm;32856;51.422;6.794;2023-04-24T13:40:36;65.55;53.95;75.36;;
47109;Laerm;32856;51.422;6.794;2023-04-24T13:43:03;64.11;50.29;75.01;;
47109;Laerm;32856;51.422;6.794;2023-04-24T13:45:31;68.97;53.15;76.98;;
47109;Laerm;32856;51.422;6.794;2023-04-24T13:47:59;65.15;51.17;75.72;;
47109;Laerm;32856;51.422;6.794;2023-04-24T13:50:27;67.16;51.44;80.12;;
47109;Laerm;32856;51.422;6.794;2023-04-24T13:52:57;68.16;50.31;85.11;;